Time;durP1;ratioP1;P1;durP2;ratioP2;P2;SDS_P1;SDS_P2;PMS_P1;PMS_P2;Temp;Humidity;BMP_temperature;BMP_pressure;BME280_temperature;BME280_humidity;BME280_pressure;Samples;Min_cycle;Max_cycle;Signal;HPM_P1;HPM_P2
2022/03/20 00:00:15;;;;;;;15.38;11.80;;;;;;;-0.33;45.51;103180.75;5010391;28;20124;-74
2022/03/20 00:02:41;;;;;;;15.13;10.95;;;;;;;-0.18;44.87;103173.47;5022547;28;20052;-73
2022/03/20 00:05:49;;;;;;;13.93;10.18;;;;;;;-0.32;45.21;103185.16;5029673;28;20049;-74
2022/03/20 00:08:58;;;;;;;16.58;9.93;;;;;;;-0.19;45.30;103177.69;4992954;28;20105;-74
2022/03/20 00:11:27;;;;;;;15.45;9.77;;;;;;;-0.18;45.21;103176.94;4993896;28;20035;-74
2022/03/20 00:13:54;;;;;;;15.90;9.82;;;;;;;-0.19;44.89;103177.69;4994258;28;20034;-73
2022/03/20 00:23:18;;;;;;;16.98;9.38;;;;;;;-0.15;44.54;103171.16;5013848;28;20052;-74
2022/03/20 00:26:18;;;;;;;15.93;9.35;;;;;;;-0.22;45.21;103172.28;5012394;28;20053;-74
2022/03/20 00:28:44;;;;;;;12.95;9.23;;;;;;;-0.12;44.90;103172.31;5013279;28;20034;-74
2022/03/20 00:31:10;;;;;;;15.70;9.85;;;;;;;-0.26;45.02;103165.97;5012560;28;20021;-74
2022/03/20 00:33:35;;;;;;;14.40;9.93;;;;;;;-0.04;45.01;103180.75;5013337;28;20109;-74
2022/03/20 00:39:22;;;;;;;16.50;9.30;;;;;;;-0.29;44.85;103155.34;5012030;28;20052;-74
2022/03/20 00:48:31;;;;;;;14.20;8.43;;;;;;;-0.14;45.01;103154.88;5012571;28;20045;-74
2022/03/20 00:51:03;;;;;;;17.55;9.90;;;;;;;-0.21;45.15;103163.78;5012175;28;20049;-74
2022/03/20 00:53:29;;;;;;;16.92;9.00;;;;;;;-0.30;45.00;103157.81;5013848;28;20030;-75
2022/03/20 00:55:55;;;;;;;18.52;10.23;;;;;;;-0.35;45.34;103159.06;5012553;28;20137;-74
2022/03/20 01:01:42;;;;;;;16.88;10.30;;;;;;;-0.34;45.15;103153.16;5013310;28;20056;-75
2022/03/20 01:07:29;;;;;;;17.45;10.27;;;;;;;-0.23;45.72;103165.31;5014386;28;20128;-74
2022/03/20 01:10:13;;;;;;;13.15;9.00;;;;;;;-0.33;45.32;103147.19;5011933;28;20499;-74
2022/03/20 01:12:41;;;;;;;23.13;10.20;;;;;;;-0.03;45.22;103173.13;4993197;28;20140;-74
2022/03/20 01:15:11;;;;;;;18.92;10.52;;;;;;;-0.38;45.21;103158.78;4996353;28;20088;-74
2022/03/20 01:17:38;;;;;;;21.17;9.98;;;;;;;-0.29;45.61;103172.50;5010721;28;20359;-74
2022/03/20 01:20:05;;;;;;;16.98;9.70;;;;;;;0.12;44.86;103170.09;5014535;28;20525;-75
2022/03/20 01:22:31;;;;;;;18.77;9.75;;;;;;;-0.10;44.70;103163.03;5015461;28;20185;-75
2022/03/20 01:24:56;;;;;;;14.93;10.10;;;;;;;-0.18;45.66;103160.56;5015503;28;20120;-74
2022/03/20 01:27:22;;;;;;;13.85;8.68;;;;;;;-0.41;45.93;103161.13;5016471;28;20025;-74
2022/03/20 01:29:48;;;;;;;24.60;9.77;;;;;;;-0.54;46.12;103159.09;5015537;28;20026;-74
2022/03/20 01:32:13;;;;;;;16.58;11.40;;;;;;;-0.70;46.51;103173.22;5014210;28;20029;-74
2022/03/20 01:36:55;;;;;;;14.32;8.73;;;;;;;-0.70;46.84;103174.91;5069400;28;20625;-75
2022/03/20 01:39:21;;;;;;;16.38;9.32;;;;;;;-0.80;47.09;103162.81;5044092;28;20132;-74
2022/03/20 01:41:47;;;;;;;24.58;11.35;;;;;;;-0.73;47.09;103162.59;5029018;28;20115;-74
2022/03/20 01:44:13;;;;;;;15.95;11.43;;;;;;;-0.77;46.76;103162.19;5030095;28;20038;-74
2022/03/20 01:46:39;;;;;;;16.20;9.50;;;;;;;-0.81;47.17;103148.13;5028712;28;20034;-74
2022/03/20 01:49:05;;;;;;;14.13;9.43;;;;;;;-1.02;47.69;103152.25;5030599;28;20429;-74
2022/03/20 01:54:53;;;;;;;14.70;10.65;;;;;;;-0.76;47.10;103141.72;5008010;28;20081;-74
2022/03/20 01:57:20;;;;;;;19.83;12.07;;;;;;;-0.82;47.13;103140.25;5009133;28;20129;-74
2022/03/20 01:59:47;;;;;;;16.33;9.63;;;;;;;-0.91;47.82;103145.50;5009199;28;20041;-74
2022/03/20 02:08:56;;;;;;;11.73;9.35;;;;;;;-1.01;47.96;103166.03;5010385;28;20072;-75
2022/03/20 02:11:25;;;;;;;19.33;10.77;;;;;;;-0.96;47.84;103159.63;5006975;28;20034;-75
2022/03/20 02:13:52;;;;;;;22.45;12.60;;;;;;;-0.79;47.75;103156.91;5009423;28;20121;-75
2022/03/20 02:16:18;;;;;;;18.77;11.95;;;;;;;-1.20;48.29;103156.63;5010429;28;20030;-74
2022/03/20 02:18:54;;;;;;;21.05;11.48;;;;;;;-1.22;48.75;103163.28;5009255;28;20084;-75
2022/03/20 02:24:44;;;;;;;23.42;12.85;;;;;;;-1.25;48.71;103145.00;5008658;28;20489;-74
2022/03/20 02:27:27;;;;;;;15.18;9.35;;;;;;;-1.05;48.19;103157.13;5008600;28;20048;-75
2022/03/20 02:29:57;;;;;;;19.20;10.90;;;;;;;-1.20;48.90;103154.03;5025146;28;20045;-75
2022/03/20 02:35:44;;;;;;;26.95;12.57;;;;;;;-0.97;48.30;103158.72;5021373;28;20127;-75
2022/03/20 02:41:32;;;;;;;19.42;10.75;;;;;;;-1.07;48.55;103158.66;5029497;28;20036;-75
2022/03/20 02:43:59;;;;;;;17.63;10.38;;;;;;;-0.83;47.90;103164.22;5030655;28;20053;-74
2022/03/20 02:46:25;;;;;;;17.98;10.38;;;;;;;-1.02;48.07;103149.66;5023992;28;20021;-74
2022/03/20 02:48:51;;;;;;;17.10;10.75;;;;;;;-0.68;47.44;103156.22;5016460;28;20558;-75
2022/03/20 02:51:17;;;;;;;15.98;9.60;;;;;;;-0.93;48.06;103150.50;5009337;28;20088;-75
2022/03/20 02:53:42;;;;;;;24.83;11.25;;;;;;;-0.88;47.91;103156.97;4995097;28;20471;-75
2022/03/20 02:56:10;;;;;;;13.52;9.32;;;;;;;-1.06;48.30;103163.03;4993817;28;20070;-75
2022/03/20 02:58:36;;;;;;;21.95;12.70;;;;;;;-0.81;47.57;103145.56;4994885;28;20054;-75
2022/03/20 03:01:01;;;;;;;19.42;11.85;;;;;;;-0.98;48.34;103148.28;4996509;28;20077;-75
2022/03/20 03:03:27;;;;;;;15.52;12.35;;;;;;;-0.83;47.77;103156.50;4996121;28;20467;-75
2022/03/20 03:12:36;;;;;;;16.92;10.38;;;;;;;-0.90;48.50;103155.03;4996152;28;20049;-75
2022/03/20 03:15:19;;;;;;;15.65;9.82;;;;;;;-0.83;47.55;103154.81;4995612;28;20042;-75
2022/03/20 03:17:46;;;;;;;18.75;10.57;;;;;;;-0.59;46.81;103153.53;4996046;28;20042;-75
2022/03/20 03:20:12;;;;;;;24.20;11.45;;;;;;;-0.54;46.74;103154.88;4998460;28;20096;-75
2022/03/20 03:22:37;;;;;;;14.77;11.02;;;;;;;-0.63;47.55;103166.94;4991935;28;20153;-75
2022/03/20 03:25:04;;;;;;;17.85;13.00;;;;;;;-0.64;46.97;103162.53;4994800;28;20463;-75
2022/03/20 03:30:51;;;;;;;16.77;10.02;;;;;;;-0.77;47.56;103164.75;4996153;28;20096;-75
2022/03/20 03:37:11;;;;;;;21.85;11.98;;;;;;;-0.86;47.87;103170.03;4994152;28;20185;-75
2022/03/20 03:43:22;;;;;;;12.55;8.73;;;;;;;-1.13;48.43;103168.38;4976578;28;20090;-74
2022/03/20 03:49:10;;;;;;;14.48;8.45;;;;;;;-0.80;47.15;103165.41;5015181;28;20103;-75
2022/03/20 03:52:15;;;;;;;18.52;9.40;;;;;;;-0.82;47.60;103169.53;5013623;28;20461;-75
2022/03/20 03:58:03;;;;;;;19.58;9.68;;;;;;;-0.44;46.55;103172.06;5015106;28;20049;-75
2022/03/20 04:00:32;;;;;;;20.50;15.77;;;;;;;-0.39;46.23;103180.22;5013884;28;20497;-75
2022/03/20 04:02:59;;;;;;;17.35;9.85;;;;;;;-0.30;46.01;103179.34;5014375;28;20042;-75
2022/03/20 04:05:27;;;;;;;19.63;11.93;;;;;;;-0.48;46.29;103177.72;5014489;28;20041;-75
2022/03/20 04:11:14;;;;;;;18.35;9.30;;;;;;;-1.39;48.31;103184.00;4995121;28;20096;-75
2022/03/20 04:23:49;;;;;;;15.80;10.70;;;;;;;-1.59;48.76;103177.94;4995017;28;20048;-75
2022/03/20 04:26:17;;;;;;;18.88;10.38;;;;;;;-1.65;49.18;103179.91;4971114;28;20043;-74
2022/03/20 04:28:44;;;;;;;18.48;12.15;;;;;;;-1.52;49.03;103180.31;4975346;28;20041;-74
2022/03/20 04:34:31;;;;;;;17.40;11.88;;;;;;;-1.15;48.59;103185.38;5014792;28;20164;-75
2022/03/20 04:37:44;;;;;;;23.35;10.50;;;;;;;-0.92;48.25;103197.78;5012788;28;20494;-75
2022/03/20 04:43:53;;;;;;;11.23;8.55;;;;;;;-1.13;47.66;103189.91;4994950;28;20050;-75
2022/03/20 05:15:18;;;;;;;13.85;8.50;;;;;;;-0.40;47.38;103201.59;5013433;28;20044;-75
2022/03/20 05:17:43;;;;;;;23.90;10.73;;;;;;;-0.68;48.53;103205.19;5012571;28;20033;-75
2022/03/20 05:23:39;;;;;;;17.67;9.70;;;;;;;-0.27;48.03;103201.94;4997884;28;20101;-75
2022/03/20 05:29:35;;;;;;;18.30;10.48;;;;;;;0.07;47.41;103218.75;4974241;28;20077;-75
2022/03/20 05:35:23;;;;;;;20.23;12.40;;;;;;;0.23;46.51;103225.22;4973861;28;20533;-76
2022/03/20 05:37:49;;;;;;;22.63;14.23;;;;;;;0.22;46.80;103224.31;4974404;28;20039;-75
2022/03/20 05:40:31;;;;;;;14.23;9.93;;;;;;;0.08;46.93;103210.22;4973887;28;20025;-81
2022/03/20 05:43:00;;;;;;;14.68;9.98;;;;;;;0.37;46.55;103230.81;4990276;28;20043;-76
2022/03/20 05:45:25;;;;;;;21.65;11.98;;;;;;;0.39;46.36;103224.09;4991734;28;20042;-77
2022/03/20 05:47:51;;;;;;;17.80;13.18;;;;;;;0.18;47.24;103222.25;4993826;28;20517;-76
2022/03/20 05:53:38;;;;;;;19.45;11.43;;;;;;;0.30;46.94;103220.72;4994254;28;20088;-75
2022/03/20 05:58:48;;;;;;;18.85;12.00;;;;;;;0.59;46.47;103228.41;4993042;28;20037;-76
2022/03/20 06:01:13;;;;;;;20.30;13.40;;;;;;;0.93;45.45;103231.28;4992693;28;20026;-75
2022/03/20 06:03:39;;;;;;;19.88;11.77;;;;;;;1.08;45.36;103228.16;4992888;28;20034;-75
2022/03/20 06:06:07;;;;;;;19.15;12.65;;;;;;;0.91;45.11;103209.56;5006189;28;20088;-75
2022/03/20 06:11:55;;;;;;;17.63;10.90;;;;;;;1.14;44.61;103228.69;5012904;28;20036;-76
2022/03/20 06:14:21;;;;;;;23.38;14.55;;;;;;;1.45;44.05;103220.13;5004465;28;20113;-77
2022/03/20 06:16:48;;;;;;;15.90;10.70;;;;;;;1.40;44.57;103229.16;4993636;28;20523;-77
2022/03/20 06:19:15;;;;;;;19.25;10.40;;;;;;;1.44;43.56;103223.47;4992184;28;20026;-76
2022/03/20 06:21:42;;;;;;;22.88;8.50;;;;;;;1.55;42.59;103232.13;4993315;28;20045;-74
2022/03/20 06:24:08;;;;;;;19.00;12.25;;;;;;;1.84;41.22;103229.31;5007145;28;20121;-76
2022/03/20 06:26:34;;;;;;;16.30;11.27;;;;;;;1.91;40.99;103220.38;5016671;28;20176;-83
2022/03/20 06:32:22;;;;;;;12.95;9.10;;;;;;;2.19;40.74;103223.47;5017681;28;20072;-85
2022/03/20 06:38:09;;;;;;;17.52;11.15;;;;;;;2.21;39.73;103223.63;5016750;28;20101;-84
2022/03/20 06:40:34;;;;;;;19.83;11.95;;;;;;;2.27;39.91;103227.59;5016565;28;20126;-84
2022/03/20 06:43:00;;;;;;;11.23;8.27;;;;;;;2.20;39.87;103222.72;5017133;28;20026;-82
2022/03/20 06:48:47;;;;;;;25.02;11.20;;;;;;;2.35;38.74;103233.38;5016751;28;20088;-81
2022/03/20 06:51:15;;;;;;;16.98;11.98;;;;;;;2.40;38.42;103233.75;5011277;28;20034;-81
2022/03/20 06:53:41;;;;;;;16.33;9.43;;;;;;;2.42;38.21;103227.91;4995097;28;20050;-84
2022/03/20 06:56:54;;;;;;;15.88;9.98;;;;;;;2.42;37.97;103237.34;4995516;28;20058;-81
2022/03/20 07:02:42;;;;;;;17.42;8.25;;;;;;;2.52;38.60;103229.50;4996657;28;20355;-84
2022/03/20 07:05:09;;;;;;;15.98;9.85;;;;;;;2.69;38.44;103230.81;4991517;28;20042;-85
2022/03/20 07:07:35;;;;;;;14.23;8.68;;;;;;;2.69;38.14;103236.94;4982875;28;20030;-78
2022/03/20 07:10:02;;;;;;;19.65;11.63;;;;;;;2.59;37.59;103234.38;4990801;28;20088;-77
2022/03/20 07:12:27;;;;;;;10.43;7.13;;;;;;;2.52;37.36;103213.97;4988710;28;20390;-79
2022/03/20 07:15:11;;;;;;;15.57;7.22;;;;;;;2.43;37.17;103216.72;4992771;28;20030;-80
2022/03/20 07:18:00;;;;;;;16.55;11.13;;;;;;;3.00;36.51;103218.53;4984368;28;20487;-79
2022/03/20 07:20:28;;;;;;;18.13;11.00;;;;;;;2.73;35.79;103217.31;4986552;28;20034;-81
2022/03/20 07:22:53;;;;;;;17.52;8.45;;;;;;;2.99;35.64;103221.91;4982651;28;20153;-75
2022/03/20 07:30:46;;;;;;;11.00;7.50;;;;;;;2.79;34.79;103220.41;4985372;28;20382;-80
2022/03/20 07:36:40;;;;;;;32.03;18.38;;;;;;;3.28;34.35;103231.00;4990962;28;20045;-80
2022/03/20 07:39:05;;;;;;;15.88;8.73;;;;;;;3.30;33.55;103219.03;5019897;28;20038;-80
2022/03/20 07:41:31;;;;;;;14.00;8.82;;;;;;;3.29;33.09;103199.06;5029274;28;20033;-80
2022/03/20 07:43:58;;;;;;;22.08;11.60;;;;;;;3.25;33.28;103189.25;5028910;28;20053;-81
2022/03/20 07:46:28;;;;;;;16.58;10.32;;;;;;;3.53;32.88;103187.88;5022247;28;20105;-80
2022/03/20 07:48:53;;;;;;;18.02;9.73;;;;;;;3.48;33.04;103202.22;5017333;28;20461;-75
2022/03/20 07:51:20;;;;;;;34.17;19.42;;;;;;;3.67;32.67;103211.38;5024294;28;20448;-80
2022/03/20 07:53:46;;;;;;;17.85;10.68;;;;;;;3.33;31.83;103186.44;5022540;28;20053;-78
2022/03/20 07:56:12;;;;;;;16.08;10.55;;;;;;;3.21;31.78;103187.19;5025321;28;20048;-79
2022/03/20 07:58:38;;;;;;;18.15;12.13;;;;;;;3.11;32.13;103170.97;5024741;28;20439;-75
2022/03/20 08:01:03;;;;;;;19.05;10.63;;;;;;;3.43;31.70;103190.59;5021969;28;20035;-74
2022/03/20 08:03:29;;;;;;;23.58;12.27;;;;;;;3.55;31.23;103196.69;5022028;28;20132;-79
2022/03/20 08:05:54;;;;;;;12.65;9.40;;;;;;;3.48;31.25;103167.59;5021763;28;20052;-77
2022/03/20 08:08:21;;;;;;;18.52;11.05;;;;;;;4.02;31.49;103204.44;5020795;28;20038;-79
2022/03/20 08:10:47;;;;;;;20.52;13.13;;;;;;;4.13;31.51;103194.81;5020532;28;20052;-80
2022/03/20 08:13:12;;;;;;;17.00;10.48;;;;;;;4.01;31.90;103178.38;5024246;28;20037;-79
2022/03/20 08:15:39;;;;;;;15.95;10.15;;;;;;;3.90;31.77;103189.69;5024267;28;20044;-80
2022/03/20 08:18:07;;;;;;;21.88;11.82;;;;;;;4.18;31.46;103200.34;5026284;28;20042;-79
2022/03/20 08:20:33;;;;;;;19.13;11.98;;;;;;;3.95;31.49;103173.63;5028406;28;20033;-80
2022/03/20 08:23:00;;;;;;;16.60;11.52;;;;;;;3.94;31.70;103161.44;5025469;28;20033;-81
2022/03/20 08:25:26;;;;;;;32.15;13.10;;;;;;;3.90;30.83;103161.09;5024901;28;20029;-74
2022/03/20 08:28:00;;;;;;;17.00;12.85;;;;;;;3.86;31.04;103208.44;5031804;28;20033;-75
2022/03/20 08:30:43;;;;;;;17.88;12.68;;;;;;;3.76;31.35;103175.69;5026284;28;20033;-75
2022/03/20 08:33:08;;;;;;;18.73;13.90;;;;;;;3.79;31.29;103162.91;5033689;28;20046;-75
2022/03/20 08:35:46;;;;;;;22.33;14.10;;;;;;;4.01;31.51;103161.09;5029288;28;20469;-75
2022/03/20 08:38:21;;;;;;;30.02;14.30;;;;;;;4.08;32.20;103161.53;5031240;28;20052;-75
2022/03/20 08:40:47;;;;;;;22.92;13.77;;;;;;;4.00;31.75;103146.31;5027585;28;20796;-75
2022/03/20 08:43:15;;;;;;;20.45;13.68;;;;;;;4.35;31.47;103142.66;5030519;28;20102;-75
2022/03/20 08:45:42;;;;;;;25.83;13.68;;;;;;;4.25;31.42;103144.53;5022836;28;20048;-75
2022/03/20 08:48:13;;;;;;;26.40;15.98;;;;;;;4.39;31.90;103138.56;5029216;28;20137;-75
2022/03/20 08:50:39;;;;;;;23.75;15.98;;;;;;;4.31;31.56;103170.91;5026858;28;20038;-75
2022/03/20 08:56:26;;;;;;;25.17;15.68;;;;;;;4.69;31.25;103152.78;5032422;28;20096;-75
2022/03/20 08:58:52;;;;;;;24.20;15.20;;;;;;;4.94;30.97;103124.13;5021956;28;20037;-76
2022/03/20 09:01:17;;;;;;;26.85;14.90;;;;;;;5.02;30.45;103141.16;5020556;28;20029;-75
2022/03/20 09:03:45;;;;;;;20.23;13.13;;;;;;;5.08;30.12;103149.38;5020921;28;20087;-76
2022/03/20 09:06:11;;;;;;;21.02;12.48;;;;;;;5.03;29.70;103155.97;5021854;28;20045;-75
2022/03/20 09:08:37;;;;;;;21.40;12.38;;;;;;;4.57;29.59;103086.94;5023737;28;20044;-75
2022/03/20 09:11:03;;;;;;;24.92;12.38;;;;;;;4.63;29.73;103132.44;5023843;28;20033;-75
2022/03/20 09:13:29;;;;;;;23.08;12.63;;;;;;;4.75;29.86;103124.59;5021790;28;20025;-75
2022/03/20 09:21:25;;;;;;;14.95;11.07;;;;;;;4.84;29.33;103106.97;5021720;28;20091;-72
2022/03/20 09:23:51;;;;;;;24.40;12.05;;;;;;;5.20;29.04;103132.78;5023741;28;20049;-72
2022/03/20 09:26:17;;;;;;;17.85;12.27;;;;;;;5.22;29.29;103133.75;5023891;28;20065;-76
2022/03/20 09:28:48;;;;;;;13.82;10.60;;;;;;;4.99;28.85;103078.50;5022972;28;20041;-75
2022/03/20 09:31:15;;;;;;;18.77;13.40;;;;;;;4.71;29.08;103075.78;5022442;28;20029;-74
2022/03/20 09:33:43;;;;;;;20.58;13.10;;;;;;;4.84;28.85;103111.28;5031175;28;20037;-75
2022/03/20 09:36:10;;;;;;;24.00;12.93;;;;;;;5.12;29.42;103120.94;5030019;28;20048;-72
2022/03/20 09:38:36;;;;;;;18.85;13.25;;;;;;;5.23;29.20;103087.00;5032548;28;20044;-73
2022/03/20 09:41:07;;;;;;;23.85;12.18;;;;;;;5.28;29.50;103105.53;5027152;28;20037;-73
2022/03/20 09:43:39;;;;;;;17.55;11.95;;;;;;;5.59;29.18;103111.00;5028553;28;20453;-73
2022/03/20 09:46:05;;;;;;;17.33;12.52;;;;;;;5.69;29.21;103092.56;5030994;28;20052;-73
2022/03/20 09:48:31;;;;;;;22.30;13.02;;;;;;;5.87;28.68;103099.72;5035734;28;20043;-74
2022/03/20 09:51:13;;;;;;;28.55;12.82;;;;;;;5.38;28.28;103055.84;5028550;28;20084;-74
2022/03/20 09:53:38;;;;;;;25.60;11.50;;;;;;;5.40;28.40;103090.69;5025036;28;20038;-74
2022/03/20 09:56:41;;;;;;;18.40;11.65;;;;;;;5.48;28.13;103091.19;5027336;28;20382;-75
2022/03/20 09:59:07;;;;;;;20.85;11.70;;;;;;;5.76;27.94;103090.31;5033060;28;20042;-74
2022/03/20 10:01:36;;;;;;;15.73;11.98;;;;;;;5.74;28.39;103084.16;5032391;28;20025;-75
2022/03/20 10:04:16;;;;;;;29.75;13.32;;;;;;;5.30;28.84;103077.88;5060806;28;20030;-75
2022/03/20 10:06:43;;;;;;;25.23;14.48;;;;;;;5.65;28.92;103076.63;5032339;28;20065;-75
2022/03/20 10:09:09;;;;;;;18.10;13.38;;;;;;;6.51;28.49;103081.97;5037275;28;20048;-75
2022/03/20 10:12:06;;;;;;;18.83;13.00;;;;;;;7.05;27.25;103088.59;5035752;28;20044;-75
2022/03/20 10:14:32;;;;;;;17.13;11.85;;;;;;;6.65;27.35;103082.75;5033209;28;20053;-77
2022/03/20 10:17:14;;;;;;;18.35;12.45;;;;;;;5.48;28.09;103037.41;5040099;28;20137;-76
2022/03/20 10:19:42;;;;;;;17.95;13.20;;;;;;;5.94;28.63;103039.38;5041333;28;20116;-76
2022/03/20 10:22:14;;;;;;;20.63;13.65;;;;;;;5.74;28.47;103069.41;5043203;28;20361;-76
2022/03/20 10:24:47;;;;;;;23.60;13.05;;;;;;;6.07;28.45;103091.47;5038282;28;20069;-76
2022/03/20 10:27:14;;;;;;;19.73;14.20;;;;;;;6.17;27.87;103046.00;5041097;28;20041;-76
2022/03/20 10:29:56;;;;;;;17.90;14.35;;;;;;;6.26;28.16;103048.28;5030401;28;20493;-75
2022/03/20 10:32:22;;;;;;;23.48;15.60;;;;;;;6.18;28.54;103083.41;5028634;28;20041;-76
2022/03/20 10:35:03;;;;;;;25.33;15.05;;;;;;;5.86;29.02;103061.47;5033223;28;20073;-76
2022/03/20 10:37:50;;;;;;;23.27;15.25;;;;;;;5.91;28.75;103041.78;5037709;28;20128;-76
2022/03/20 10:40:56;;;;;;;22.35;15.57;;;;;;;5.92;28.78;103025.31;5035160;28;20049;-77
2022/03/20 10:43:45;;;;;;;23.60;14.95;;;;;;;6.28;28.48;103020.59;5033311;28;20049;-76
2022/03/20 10:46:22;;;;;;;23.17;16.63;;;;;;;6.34;28.52;103013.13;5028892;28;20049;-77
2022/03/20 10:48:52;;;;;;;24.20;16.67;;;;;;;7.05;27.87;103005.06;5033321;28;20128;-76
2022/03/20 10:51:38;;;;;;;24.98;17.33;;;;;;;7.14;27.26;103033.38;5033905;28;20048;-77
2022/03/20 10:54:22;;;;;;;19.40;15.00;;;;;;;6.45;27.94;102977.25;5034722;28;20065;-76
2022/03/20 10:57:00;;;;;;;19.63;15.80;;;;;;;6.37;28.06;103009.78;5031791;28;20563;-76
2022/03/20 10:59:27;;;;;;;34.33;18.92;;;;;;;6.69;28.30;102999.53;5041878;28;20033;-75
2022/03/20 11:01:55;;;;;;;25.83;15.57;;;;;;;6.72;27.87;102991.00;5035586;28;20109;-76
2022/03/20 11:04:23;;;;;;;24.38;16.88;;;;;;;6.75;27.61;102991.16;5029360;28;20087;-74
2022/03/20 11:07:16;;;;;;;23.65;15.10;;;;;;;6.85;27.25;102983.03;5030484;28;20030;-76
2022/03/20 11:09:56;;;;;;;21.67;15.95;;;;;;;7.20;27.29;102978.91;5024288;28;20042;-74
2022/03/20 11:12:31;;;;;;;33.58;17.35;;;;;;;7.69;26.51;102971.09;5027337;28;20489;-78
2022/03/20 11:15:03;;;;;;;19.52;14.25;;;;;;;7.09;26.80;102978.28;5029367;28;20125;-77
2022/03/20 11:17:46;;;;;;;20.88;14.60;;;;;;;7.22;27.01;102979.00;5029038;28;20040;-77
2022/03/20 11:20:16;;;;;;;24.33;16.73;;;;;;;8.31;26.36;102956.88;5027826;28;20046;-77
2022/03/20 11:26:02;;;;;;;24.73;17.70;;;;;;;7.78;26.50;102986.38;5029724;28;20961;-77
2022/03/20 11:28:34;;;;;;;21.30;15.27;;;;;;;7.10;27.20;102938.34;5028471;28;20029;-77
2022/03/20 11:31:08;;;;;;;20.45;15.23;;;;;;;7.82;26.08;102942.19;5026804;28;20048;-77
2022/03/20 11:33:33;;;;;;;;;;;;;;;7.27;26.57;102943.56;5024420;28;20044;-79
2022/03/20 11:36:02;;;;;;;25.90;16.52;;;;;;;7.91;26.32;102967.00;5041714;28;19916;-78
2022/03/20 11:38:27;;;;;;;19.17;14.75;;;;;;;7.32;26.40;102947.34;5023355;28;20106;-78
2022/03/20 11:41:20;;;;;;;19.65;16.10;;;;;;;7.23;26.56;102936.38;5024141;28;20034;-75
2022/03/20 11:44:21;;;;;;;18.85;15.63;;;;;;;8.04;26.00;102945.91;5029098;28;20061;-75
2022/03/20 11:47:16;;;;;;;21.20;16.98;;;;;;;7.77;26.13;102955.81;5016925;28;20049;-75
2022/03/20 11:49:42;;;;;;;27.10;16.40;;;;;;;8.65;25.61;102958.59;5015601;28;20040;-74
2022/03/20 11:52:13;;;;;;;21.83;17.40;;;;;;;8.77;25.23;102925.13;5022300;28;20037;-75
2022/03/20 11:54:41;;;;;;;19.10;16.20;;;;;;;7.32;26.12;102911.66;5021994;28;20042;-74
2022/03/20 11:57:28;;;;;;;18.38;15.43;;;;;;;8.22;25.98;102941.63;5014016;28;20119;-76
2022/03/20 12:00:15;;;;;;;20.23;15.35;;;;;;;7.66;26.24;102936.09;5022967;28;20045;-74
2022/03/20 12:02:45;;;;;;;22.00;16.73;;;;;;;8.09;25.75;102897.34;5021471;28;20051;-75
2022/03/20 12:05:29;;;;;;;26.48;16.70;;;;;;;8.28;25.41;102934.91;5023533;28;20121;-74
2022/03/20 12:08:05;;;;;;;23.48;16.60;;;;;;;8.18;25.24;102897.81;5023707;28;20045;-74
2022/03/20 12:11:04;;;;;;;22.73;15.38;;;;;;;7.70;25.59;102919.72;5021707;28;20025;-74
2022/03/20 12:13:55;;;;;;;30.92;14.93;;;;;;;8.00;25.48;102918.69;5019545;28;20549;-74
2022/03/20 12:16:42;;;;;;;24.40;16.33;;;;;;;7.40;25.81;102888.59;5023381;28;20056;-74
2022/03/20 12:19:14;;;;;;;26.40;17.15;;;;;;;7.74;25.69;102888.59;5022279;28;20040;-74
2022/03/20 12:21:59;;;;;;;25.23;17.77;;;;;;;8.36;25.10;102918.78;5021879;28;20076;-74
2022/03/20 12:24:39;;;;;;;20.70;15.80;;;;;;;7.66;25.84;102907.34;5024471;28;20041;-73
2022/03/20 12:27:26;;;;;;;26.45;17.10;;;;;;;7.60;25.76;102885.28;5022829;28;20061;-74
2022/03/20 12:30:16;;;;;;;36.15;15.48;;;;;;;8.29;24.85;102887.91;5022598;28;20033;-74
2022/03/20 12:32:47;;;;;;;23.50;15.48;;;;;;;7.81;25.28;102858.47;5022599;28;20109;-76
2022/03/20 12:35:30;;;;;;;25.17;15.38;;;;;;;7.69;25.34;102873.53;5020027;28;20041;-73
2022/03/20 12:37:57;;;;;;;25.83;16.80;;;;;;;7.45;25.48;102857.47;5022226;28;20062;-74
2022/03/20 12:40:27;;;;;;;22.50;16.60;;;;;;;7.69;25.58;102865.69;5021598;28;20081;-73
2022/03/20 12:43:10;;;;;;;23.27;17.10;;;;;;;7.74;25.28;102874.66;5022141;28;20048;-75
2022/03/20 12:45:39;;;;;;;18.98;16.65;;;;;;;8.02;25.51;102861.25;5020881;28;20497;-73
2022/03/20 12:48:07;;;;;;;21.40;15.00;;;;;;;7.80;25.50;102857.56;5004313;28;20161;-75
2022/03/20 12:50:42;;;;;;;24.02;16.83;;;;;;;7.97;25.27;102842.72;5022284;28;20053;-75
2022/03/20 12:53:16;;;;;;;24.15;15.32;;;;;;;8.27;24.81;102857.25;5021129;28;20033;-75
2022/03/20 12:55:59;;;;;;;25.88;16.40;;;;;;;7.85;25.52;102849.06;5021518;28;20045;-76
2022/03/20 12:58:26;;;;;;;19.40;15.48;;;;;;;8.18;25.23;102852.47;5021886;28;20030;-73
2022/03/20 13:00:53;;;;;;;19.67;14.57;;;;;;;7.74;25.51;102851.13;5004201;28;20156;-74
2022/03/20 13:03:20;;;;;;;21.02;14.75;;;;;;;7.66;25.91;102839.41;5019274;28;20041;-73
2022/03/20 13:05:45;;;;;;;24.75;15.75;;;;;;;7.90;25.58;102860.66;5020022;28;20558;-73
2022/03/20 13:08:18;;;;;;;21.58;15.75;;;;;;;8.05;25.39;102850.94;5022005;28;20132;-74
2022/03/20 13:10:44;;;;;;;19.35;15.38;;;;;;;8.05;25.43;102861.41;5021608;28;20050;-74
2022/03/20 13:13:10;;;;;;;21.50;15.93;;;;;;;8.08;25.82;102838.03;5015653;28;20028;-75
2022/03/20 13:15:38;;;;;;;21.67;16.85;;;;;;;8.53;24.96;102843.75;5020368;28;20069;-75
2022/03/20 13:18:05;;;;;;;20.23;15.65;;;;;;;7.74;25.12;102849.41;5021241;28;20048;-75
2022/03/20 13:20:33;;;;;;;23.00;14.95;;;;;;;7.54;25.37;102824.88;5013869;28;20069;-74
2022/03/20 13:23:06;;;;;;;23.83;16.48;;;;;;;8.31;25.37;102827.78;5018207;28;20659;-74
2022/03/20 13:25:37;;;;;;;18.60;15.50;;;;;;;8.38;24.43;102819.41;5020741;28;20037;-74
2022/03/20 13:28:03;;;;;;;32.05;19.30;;;;;;;8.53;24.52;102820.19;5022559;28;20025;-75
2022/03/20 13:30:34;;;;;;;29.27;17.90;;;;;;;8.14;25.22;102840.94;5018571;28;20429;-75
2022/03/20 13:33:02;;;;;;;21.48;16.63;;;;;;;8.11;25.04;102819.88;5019914;28;20048;-75
2022/03/20 13:35:28;;;;;;;21.48;15.18;;;;;;;8.55;24.82;102839.47;5021243;28;20481;-73
2022/03/20 13:37:57;;;;;;;19.13;15.00;;;;;;;8.99;24.48;102819.72;5018494;28;20084;-75
2022/03/20 13:40:25;;;;;;;19.20;14.30;;;;;;;8.24;25.01;102834.44;5020917;28;20056;-75
2022/03/20 13:42:51;;;;;;;24.13;16.50;;;;;;;8.51;24.95;102831.41;5018666;28;20042;-75
2022/03/20 13:45:17;;;;;;;20.05;14.65;;;;;;;8.32;25.71;102842.69;5017531;28;20065;-73
2022/03/20 13:47:44;;;;;;;22.85;14.73;;;;;;;7.81;25.27;102848.91;5011663;28;20080;-75
2022/03/20 13:50:11;;;;;;;22.38;15.05;;;;;;;8.31;25.07;102819.94;5027230;28;20064;-73
2022/03/20 13:52:37;;;;;;;21.30;15.23;;;;;;;8.32;25.30;102837.44;5051435;28;20049;-73
2022/03/20 13:55:06;;;;;;;21.85;16.08;;;;;;;8.32;25.54;102826.97;5020894;28;20296;-73
2022/03/20 13:57:32;;;;;;;21.00;15.55;;;;;;;8.03;25.42;102836.94;5019042;28;20128;-73
2022/03/20 14:00:05;;;;;;;24.23;17.40;;;;;;;7.95;25.73;102810.38;5019482;28;20095;-73
2022/03/20 14:02:48;;;;;;;23.85;16.90;;;;;;;8.18;25.33;102847.22;5018800;28;20140;-73
2022/03/20 14:05:24;;;;;;;26.40;16.33;;;;;;;7.95;25.58;102809.50;5019647;28;20037;-73
2022/03/20 14:08:03;;;;;;;22.60;15.38;;;;;;;8.12;25.34;102808.59;5018583;28;20094;-76
2022/03/20 14:10:29;;;;;;;22.17;14.55;;;;;;;7.91;25.37;102813.66;5019287;28;20131;-73
2022/03/20 14:13:14;;;;;;;26.58;16.70;;;;;;;7.73;25.99;102813.66;5021152;28;20544;-75
2022/03/20 14:15:40;;;;;;;21.75;14.30;;;;;;;7.98;25.41;102796.56;5019044;28;20049;-76
2022/03/20 14:18:12;;;;;;;21.55;14.65;;;;;;;8.35;25.36;102827.13;5020263;28;20049;-73
2022/03/20 14:20:37;;;;;;;22.15;16.08;;;;;;;8.19;25.26;102810.72;5017641;28;20037;-74
2022/03/20 14:23:09;;;;;;;23.92;14.77;;;;;;;7.76;26.05;102844.28;5018104;28;20042;-73
2022/03/20 14:25:45;;;;;;;28.38;15.98;;;;;;;8.01;25.90;102799.34;5019255;28;20039;-74
2022/03/20 14:28:14;;;;;;;29.67;16.60;;;;;;;8.09;25.24;102769.22;5019918;28;20068;-76